createdAt,value
2022-09-02T00:00:59.947Z,101237.00
2022-09-02T00:03:28.721Z,101229.00
2022-09-02T00:05:55.498Z,101232.00
2022-09-02T00:08:22.172Z,101237.00
2022-09-02T00:10:48.852Z,101238.00
2022-09-02T00:13:18.590Z,101229.00
2022-09-02T00:15:45.848Z,101230.00
2022-09-02T00:18:15.423Z,101230.00
2022-09-02T00:20:46.552Z,101230.00
2022-09-02T00:23:13.402Z,101230.00
2022-09-02T00:25:40.472Z,101230.00
2022-09-02T00:28:07.322Z,101233.00
2022-09-02T00:30:35.722Z,101228.00
2022-09-02T00:33:03.529Z,101223.00
2022-09-02T00:35:31.160Z,101224.00
2022-09-02T00:37:58.066Z,101227.00
2022-09-02T00:40:25.589Z,101222.00
2022-09-02T00:42:52.654Z,101221.00
2022-09-02T00:45:21.304Z,101220.00
2022-09-02T00:47:50.546Z,101220.00
2022-09-02T00:50:20.381Z,101221.00
2022-09-02T00:52:51.075Z,101215.00
2022-09-02T00:55:24.429Z,101222.00
2022-09-02T00:57:56.889Z,101216.00
2022-09-02T01:00:34.567Z,101206.00
2022-09-02T01:03:06.665Z,101215.00
2022-09-02T01:05:38.606Z,101212.00
2022-09-02T01:08:09.543Z,101216.00
2022-09-02T01:10:36.274Z,101210.00
2022-09-02T01:13:10.417Z,101209.00
2022-09-02T01:15:41.078Z,101213.00
2022-09-02T01:18:09.827Z,101213.00
2022-09-02T01:20:36.484Z,101214.00
2022-09-02T01:23:03.193Z,101220.00
2022-09-02T01:25:32.962Z,101200.00
2022-09-02T01:28:08.400Z,101208.00
2022-09-02T01:30:37.346Z,101204.00
2022-09-02T01:33:04.103Z,101205.00
2022-09-02T01:35:31.361Z,101203.00
2022-09-02T01:37:59.204Z,101202.00
2022-09-02T01:40:27.712Z,101198.00
2022-09-02T01:42:57.059Z,101208.00
2022-09-02T01:45:24.497Z,101204.00
2022-09-02T01:47:51.805Z,101197.00
2022-09-02T01:50:18.566Z,101196.00
2022-09-02T01:52:45.192Z,101198.00
2022-09-02T01:55:11.954Z,101202.00
2022-09-02T01:57:38.724Z,101207.00
2022-09-02T02:00:09.445Z,101196.00
2022-09-02T02:02:39.416Z,101203.00
2022-09-02T02:05:07.534Z,101197.00
2022-09-02T02:07:35.241Z,101195.00
2022-09-02T02:10:02.061Z,101195.00
2022-09-02T02:12:30.006Z,101194.00
2022-09-02T02:14:57.072Z,101194.00
2022-09-02T02:17:23.816Z,101183.00
2022-09-02T02:19:50.507Z,101180.00
2022-09-02T02:22:17.522Z,101190.00
2022-09-02T02:24:44.143Z,101189.00
2022-09-02T02:27:11.551Z,101197.00
2022-09-02T02:29:38.238Z,101190.00
2022-09-02T02:32:07.441Z,101188.00
2022-09-02T02:34:34.843Z,101183.00
2022-09-02T02:37:01.557Z,101190.00
2022-09-02T02:39:28.160Z,101189.00
2022-09-02T02:41:54.806Z,101179.00
2022-09-02T02:44:21.573Z,101187.00
2022-09-02T02:46:48.304Z,101181.00
2022-09-02T02:49:16.317Z,101186.00
2022-09-02T02:51:42.961Z,101183.00
2022-09-02T02:54:10.553Z,101171.00
2022-09-02T02:56:37.936Z,101183.00
2022-09-02T02:59:04.592Z,101171.00
2022-09-02T03:01:33.597Z,101173.00
2022-09-02T03:04:00.294Z,101172.00
2022-09-02T03:06:27.600Z,101171.00
2022-09-02T03:08:55.539Z,101180.00
2022-09-02T03:11:22.591Z,101184.00
2022-09-02T03:13:51.029Z,101179.00
2022-09-02T03:16:19.873Z,101179.00
2022-09-02T03:18:48.753Z,101178.00
2022-09-02T03:21:16.012Z,101178.00
2022-09-02T03:23:44.429Z,101179.00
2022-09-02T03:26:18.922Z,101183.00
2022-09-02T03:28:48.531Z,101179.00
2022-09-02T03:31:19.279Z,101178.00
2022-09-02T03:33:46.202Z,101170.00
2022-09-02T03:36:24.626Z,101178.00
2022-09-02T03:38:51.768Z,101160.00
2022-09-02T03:41:18.795Z,101166.00
2022-09-02T03:43:46.865Z,101167.00
2022-09-02T03:46:14.725Z,101164.00
2022-09-02T03:48:41.629Z,101164.00
2022-09-02T03:51:12.209Z,101168.00
2022-09-02T03:53:39.324Z,101166.00
2022-09-02T03:56:15.478Z,101173.00
2022-09-02T03:58:44.007Z,101164.00
2022-09-02T04:01:16.165Z,101164.00
2022-09-02T04:03:43.731Z,101164.00
2022-09-02T04:06:12.947Z,101164.00
2022-09-02T04:08:41.616Z,101170.00
2022-09-02T04:11:10.216Z,101173.00
2022-09-02T04:13:37.144Z,101179.00
2022-09-02T04:16:30.963Z,101177.00
2022-09-02T04:19:04.223Z,101174.00
2022-09-02T04:21:37.587Z,101172.00
2022-09-02T04:24:06.237Z,101177.00
2022-09-02T04:26:33.451Z,101173.00
2022-09-02T04:29:00.296Z,101171.00
2022-09-02T04:31:31.497Z,101176.00
2022-09-02T04:33:59.738Z,101177.00
2022-09-02T04:36:30.678Z,101175.00
2022-09-02T04:38:59.846Z,101172.00
2022-09-02T04:41:30.752Z,101172.00
2022-09-02T04:44:02.151Z,101178.00
2022-09-02T04:46:34.891Z,101171.00
2022-09-02T04:49:05.111Z,101174.00
2022-09-02T04:51:32.859Z,101177.00
2022-09-02T04:54:01.213Z,101180.00
2022-09-02T04:56:29.678Z,101182.00
2022-09-02T04:58:58.471Z,101175.00
2022-09-02T05:01:28.028Z,101179.00
2022-09-02T05:03:58.264Z,101178.00
2022-09-02T05:06:28.897Z,101178.00
2022-09-02T05:09:03.711Z,101179.00
2022-09-02T05:11:34.161Z,101179.00
2022-09-02T05:14:03.266Z,101181.00
2022-09-02T05:16:33.970Z,101182.00
2022-09-02T05:19:01.102Z,101190.00
2022-09-02T05:21:40.480Z,101188.00
2022-09-02T05:24:07.941Z,101187.00
2022-09-02T05:26:36.006Z,101193.00
2022-09-02T05:29:06.929Z,101193.00
2022-09-02T05:31:42.203Z,101194.00
2022-09-02T05:34:14.228Z,101186.00
2022-09-02T05:36:42.062Z,101190.00
2022-09-02T05:39:09.363Z,101192.00
2022-09-02T05:41:37.426Z,101193.00
2022-09-02T05:44:06.756Z,101195.00
2022-09-02T05:46:35.498Z,101189.00
2022-09-02T05:49:07.605Z,101187.00
2022-09-02T05:51:49.825Z,101186.00
2022-09-02T05:54:26.211Z,101186.00
2022-09-02T05:56:54.588Z,101191.00
2022-09-02T05:59:23.485Z,101189.00
2022-09-02T06:01:50.730Z,101191.00
2022-09-02T06:04:17.847Z,101194.00
2022-09-02T06:06:47.004Z,101196.00
2022-09-02T06:09:17.263Z,101199.00
2022-09-02T06:11:46.003Z,101179.00
2022-09-02T06:14:21.876Z,101190.00
2022-09-02T06:16:50.681Z,101189.00
2022-09-02T06:19:34.721Z,101190.00
2022-09-02T06:22:02.989Z,101191.00
2022-09-02T06:24:31.468Z,101193.00
2022-09-02T06:27:07.174Z,101180.00
2022-09-02T06:29:35.390Z,101192.00
2022-09-02T06:32:02.619Z,101193.00
2022-09-02T06:34:29.329Z,101188.00
2022-09-02T06:36:57.615Z,101183.00
2022-09-02T06:39:26.011Z,101182.00
2022-09-02T06:41:55.904Z,101186.00
2022-09-02T06:44:24.798Z,101183.00
2022-09-02T06:46:57.484Z,101194.00
2022-09-02T06:49:25.776Z,101187.00
2022-09-02T06:51:55.152Z,101189.00
2022-09-02T06:54:26.301Z,101190.00
2022-09-02T06:57:03.685Z,101197.00
2022-09-02T06:59:30.333Z,101194.00
2022-09-02T07:01:58.293Z,101191.00
2022-09-02T07:04:45.119Z,101190.00
2022-09-02T07:07:15.150Z,101196.00
2022-09-02T07:09:50.043Z,101190.00
2022-09-02T07:12:19.510Z,101190.00
2022-09-02T07:14:56.555Z,101194.00
2022-09-02T07:17:34.557Z,101193.00
2022-09-02T07:20:05.859Z,101186.00
2022-09-02T07:22:39.281Z,101187.00
2022-09-02T07:25:09.272Z,101189.00
2022-09-02T07:27:37.195Z,101186.00
2022-09-02T07:30:06.722Z,101185.00
2022-09-02T07:32:36.571Z,101182.00
2022-09-02T07:35:06.284Z,101185.00
2022-09-02T07:37:37.186Z,101184.00
2022-09-02T07:40:07.329Z,101190.00
2022-09-02T07:42:34.259Z,101182.00
2022-09-02T07:45:01.318Z,101186.00
2022-09-02T07:47:28.435Z,101188.00
2022-09-02T07:52:42.282Z,101185.00
2022-09-02T07:55:14.635Z,101189.00
2022-09-02T07:57:42.297Z,101190.00
2022-09-02T08:00:12.109Z,101191.00
2022-09-02T08:02:40.801Z,101191.00
2022-09-02T08:05:08.643Z,101192.00
2022-09-02T08:07:35.228Z,101188.00
2022-09-02T08:10:02.346Z,101189.00
2022-09-02T08:12:28.881Z,101196.00
2022-09-02T08:15:00.109Z,101193.00
2022-09-02T08:17:26.871Z,101188.00
2022-09-02T08:19:53.558Z,101192.00
2022-09-02T08:22:20.046Z,101189.00
2022-09-02T08:24:46.596Z,101183.00
2022-09-02T08:27:13.419Z,101193.00
2022-09-02T08:29:40.036Z,101190.00
2022-09-02T08:32:06.891Z,101189.00
2022-09-02T08:34:33.528Z,101192.00
2022-09-02T08:37:00.294Z,101182.00
2022-09-02T08:39:26.891Z,101181.00
2022-09-02T08:42:03.069Z,101184.00
2022-09-02T08:44:29.858Z,101186.00
2022-09-02T08:46:59.278Z,101181.00
2022-09-02T08:49:31.273Z,101175.00
2022-09-02T08:52:00.917Z,101184.00
2022-09-02T08:54:47.705Z,101181.00
2022-09-02T08:57:14.403Z,101184.00
2022-09-02T09:02:22.441Z,101181.00
2022-09-02T09:05:20.362Z,101176.00
2022-09-02T09:08:09.622Z,101173.00
2022-09-02T09:11:00.915Z,101171.00
2022-09-02T09:13:55.624Z,101166.00
2022-09-02T09:16:32.446Z,101171.00
2022-09-02T09:19:17.351Z,101164.00
2022-09-02T09:21:44.839Z,101166.00
2022-09-02T09:24:32.227Z,101155.00
2022-09-02T09:26:59.135Z,101169.00
2022-09-02T09:29:25.738Z,101156.00
2022-09-02T09:32:00.168Z,101156.00
2022-09-02T09:34:52.386Z,101164.00
2022-09-02T09:37:35.279Z,101157.00
2022-09-02T09:40:21.858Z,101163.00
2022-09-02T09:42:50.464Z,101152.00
2022-09-02T09:45:22.043Z,101153.00
2022-09-02T09:48:18.995Z,101162.00
2022-09-02T09:50:47.409Z,101156.00
2022-09-02T09:53:24.138Z,101157.00
2022-09-02T09:56:05.232Z,101144.00
2022-09-02T09:58:41.068Z,101146.00
2022-09-02T10:01:28.701Z,101148.00
2022-09-02T10:04:00.920Z,101145.00
2022-09-02T10:06:33.386Z,101136.00
2022-09-02T10:09:25.496Z,101138.00
2022-09-02T10:12:06.520Z,101137.00
2022-09-02T10:14:36.347Z,101140.00
2022-09-02T10:17:33.698Z,101138.00
2022-09-02T10:20:16.184Z,101133.00
2022-09-02T10:23:04.763Z,101127.00
2022-09-02T10:25:39.224Z,101136.00
2022-09-02T10:28:20.862Z,101138.00
2022-09-02T10:31:17.836Z,101130.00
2022-09-02T10:34:15.653Z,101137.00
2022-09-02T10:37:02.171Z,101124.00
2022-09-02T10:39:44.773Z,101131.00
2022-09-02T10:42:31.561Z,101127.00
2022-09-02T10:45:24.265Z,101134.00
2022-09-02T10:48:16.170Z,101134.00
2022-09-02T10:50:54.100Z,101122.00
2022-09-02T10:53:20.681Z,101131.00
2022-09-02T10:55:54.638Z,101125.00
2022-09-02T10:58:29.444Z,101120.00
2022-09-02T11:00:57.290Z,101116.00
2022-09-02T11:03:46.469Z,101115.00
2022-09-02T11:06:26.215Z,101122.00
2022-09-02T11:09:04.658Z,101121.00
2022-09-02T11:11:38.625Z,101114.00
2022-09-02T11:14:15.857Z,101116.00
2022-09-02T11:17:00.674Z,101111.00
2022-09-02T11:19:34.176Z,101117.00
2022-09-02T11:22:07.414Z,101110.00
2022-09-02T11:24:46.322Z,101117.00
2022-09-02T11:27:32.420Z,101110.00
2022-09-02T11:30:13.135Z,101116.00
2022-09-02T11:33:09.985Z,101107.00
2022-09-02T11:35:39.331Z,101107.00
2022-09-02T11:38:33.985Z,101101.00
2022-09-02T11:44:20.156Z,101099.00
2022-09-02T11:47:16.187Z,101089.00
2022-09-02T11:50:04.636Z,101090.00
2022-09-02T11:52:39.309Z,101101.00
2022-09-02T11:55:16.551Z,101093.00
2022-09-02T11:57:52.750Z,101086.00
2022-09-02T12:00:31.682Z,101078.00
2022-09-02T12:03:38.792Z,101086.00
2022-09-02T12:06:25.044Z,101081.00
2022-09-02T12:08:53.307Z,101085.00
2022-09-02T12:11:42.931Z,101079.00
2022-09-02T12:14:34.483Z,101079.00
2022-09-02T12:17:04.113Z,101062.00
2022-09-02T12:19:49.931Z,101063.00
2022-09-02T12:22:16.585Z,101061.00
2022-09-02T12:24:57.179Z,101060.00
2022-09-02T12:27:36.536Z,101055.00
2022-09-02T12:30:15.408Z,101055.00
2022-09-02T12:32:46.481Z,101052.00
2022-09-02T12:35:31.417Z,101048.00
2022-09-02T12:38:17.643Z,101044.00
2022-09-02T12:41:05.971Z,101036.00
2022-09-02T12:43:49.775Z,101043.00
2022-09-02T12:46:44.461Z,101035.00
2022-09-02T12:49:30.198Z,101033.00
2022-09-02T12:51:59.868Z,101034.00
2022-09-02T12:54:35.283Z,101032.00
2022-09-02T12:57:03.280Z,101027.00
2022-09-02T12:59:33.079Z,101031.00
2022-09-02T13:02:21.025Z,101029.00
2022-09-02T13:05:22.166Z,101032.00
2022-09-02T13:07:54.441Z,101026.00
2022-09-02T13:10:42.357Z,101033.00
2022-09-02T13:13:33.730Z,101021.00
2022-09-02T13:16:15.588Z,101015.00
2022-09-02T13:19:08.275Z,101022.00
2022-09-02T13:22:07.065Z,101020.00
2022-09-02T13:25:10.262Z,101023.00
2022-09-02T13:27:55.157Z,101023.00
2022-09-02T13:30:53.359Z,101021.00
2022-09-02T13:33:19.975Z,101019.00
2022-09-02T13:35:46.566Z,101010.00
2022-09-02T13:38:16.345Z,101026.00
2022-09-02T13:40:46.337Z,101012.00
2022-09-02T13:43:13.071Z,101008.00
2022-09-02T13:45:40.008Z,101006.00
2022-09-02T13:48:09.172Z,100995.00
2022-09-02T13:50:36.752Z,100992.00
2022-09-02T13:55:55.038Z,100985.00
2022-09-02T13:58:46.070Z,100978.00
2022-09-02T14:01:24.366Z,100985.00
2022-09-02T14:03:53.402Z,100978.00
2022-09-02T14:06:33.304Z,100982.00
2022-09-02T14:09:01.755Z,100979.00
2022-09-02T14:11:28.583Z,100975.00
2022-09-02T14:13:56.225Z,100977.00
2022-09-02T14:16:37.054Z,100979.00
2022-09-02T14:19:07.568Z,100973.00
2022-09-02T14:21:35.617Z,100977.00
2022-09-02T14:24:02.782Z,100975.00
2022-09-02T14:26:37.706Z,100956.00
2022-09-02T14:29:07.628Z,100966.00
2022-09-02T14:31:35.069Z,100961.00
2022-09-02T14:34:01.908Z,100961.00
2022-09-02T14:36:33.765Z,100958.00
2022-09-02T14:39:18.917Z,100958.00
2022-09-02T14:41:48.128Z,100951.00
2022-09-02T14:44:34.338Z,100970.00
2022-09-02T14:47:03.853Z,100962.00
2022-09-02T14:49:39.247Z,100969.00
2022-09-02T14:52:16.472Z,100960.00
2022-09-02T14:54:49.391Z,100965.00
2022-09-02T14:57:35.336Z,100967.00
2022-09-02T15:00:09.912Z,100960.00
2022-09-02T15:02:36.826Z,100955.00
2022-09-02T15:05:06.407Z,100961.00
2022-09-02T15:07:33.738Z,100953.00
2022-09-02T15:10:00.786Z,100959.00
2022-09-02T15:12:30.783Z,100954.00
2022-09-02T15:14:58.201Z,100953.00
2022-09-02T15:17:25.483Z,100953.00
2022-09-02T15:19:52.260Z,100953.00
2022-09-02T15:22:20.043Z,100958.00
2022-09-02T15:24:48.296Z,100954.00
2022-09-02T15:27:15.413Z,100951.00
2022-09-02T15:29:45.540Z,100953.00
2022-09-02T15:32:12.111Z,100954.00
2022-09-02T15:34:39.563Z,100948.00
2022-09-02T15:37:08.711Z,100948.00
2022-09-02T15:39:38.847Z,100943.00
2022-09-02T15:42:05.755Z,100940.00
2022-09-02T15:44:32.523Z,100936.00
2022-09-02T15:46:59.239Z,100933.00
2022-09-02T15:49:25.912Z,100939.00
2022-09-02T15:51:54.860Z,100937.00
2022-09-02T15:54:23.913Z,100936.00
2022-09-02T15:56:53.938Z,100935.00
2022-09-02T15:59:22.090Z,100932.00
2022-09-02T16:01:50.987Z,100931.00
2022-09-02T16:04:17.793Z,100933.00
2022-09-02T16:06:47.723Z,100929.00
2022-09-02T16:09:16.554Z,100932.00
2022-09-02T16:11:45.697Z,100932.00
2022-09-02T16:14:12.533Z,100928.00
2022-09-02T16:16:39.578Z,100929.00
2022-09-02T16:19:09.734Z,100927.00
2022-09-02T16:21:39.117Z,100926.00
2022-09-02T16:24:06.425Z,100928.00
2022-09-02T16:26:35.105Z,100929.00
2022-09-02T16:29:04.067Z,100931.00
2022-09-02T16:31:32.582Z,100926.00
2022-09-02T16:34:01.223Z,100919.00
2022-09-02T16:36:33.255Z,100926.00
2022-09-02T16:39:31.221Z,100924.00
2022-09-02T16:41:58.241Z,100914.00
2022-09-02T16:44:25.544Z,100912.00
2022-09-02T16:46:52.631Z,100915.00
2022-09-02T16:49:23.015Z,100912.00
2022-09-02T16:51:58.141Z,100914.00
2022-09-02T16:54:30.626Z,100915.00
2022-09-02T16:56:59.083Z,100913.00
2022-09-02T16:59:25.626Z,100910.00
2022-09-02T17:01:52.273Z,100913.00
2022-09-02T17:04:18.918Z,100906.00
2022-09-02T17:06:45.574Z,100912.00
2022-09-02T17:09:12.152Z,100909.00
2022-09-02T17:11:41.107Z,100916.00
2022-09-02T17:14:16.098Z,100909.00
2022-09-02T17:16:48.700Z,100912.00
2022-09-02T17:19:21.047Z,100916.00
2022-09-02T17:21:53.030Z,100916.00
2022-09-02T17:24:22.310Z,100913.00
2022-09-02T17:26:50.650Z,100924.00
2022-09-02T17:32:07.082Z,100922.00
2022-09-02T17:34:33.843Z,100916.00
2022-09-02T17:37:00.576Z,100915.00
2022-09-02T17:39:27.267Z,100917.00
2022-09-02T17:42:00.017Z,100920.00
2022-09-02T17:44:27.675Z,100927.00
2022-09-02T17:46:55.937Z,100927.00
2022-09-02T17:49:22.775Z,100919.00
2022-09-02T17:51:50.050Z,100925.00
2022-09-02T17:54:16.821Z,100930.00
2022-09-02T17:57:05.196Z,100923.00
2022-09-02T17:59:59.084Z,100932.00
2022-09-02T18:02:40.706Z,100924.00
2022-09-02T18:05:18.044Z,100924.00
2022-09-02T18:08:05.250Z,100928.00
2022-09-02T18:10:35.707Z,100923.00
2022-09-02T18:13:13.675Z,100931.00
2022-09-02T18:15:56.355Z,100912.00
2022-09-02T18:18:25.574Z,100926.00
2022-09-02T18:21:04.291Z,100928.00
2022-09-02T18:23:50.684Z,100932.00
2022-09-02T18:26:50.867Z,100935.00
2022-09-02T18:29:44.375Z,100934.00
2022-09-02T18:32:18.173Z,100941.00
2022-09-02T18:35:11.115Z,100934.00
2022-09-02T18:37:59.285Z,100934.00
2022-09-02T18:40:44.192Z,100947.00
2022-09-02T18:43:49.140Z,100944.00
2022-09-02T18:46:17.903Z,100939.00
2022-09-02T18:48:46.706Z,100936.00
2022-09-02T18:51:46.887Z,100936.00
2022-09-02T18:54:18.604Z,100950.00
2022-09-02T18:56:51.281Z,100940.00
2022-09-02T18:59:25.925Z,100955.00
2022-09-02T19:01:56.398Z,100949.00
2022-09-02T19:04:29.414Z,100956.00
2022-09-02T19:07:16.674Z,100955.00
2022-09-02T19:09:43.645Z,100952.00
2022-09-02T19:12:10.924Z,100956.00
2022-09-02T19:14:40.089Z,100955.00
2022-09-02T19:17:06.899Z,100953.00
2022-09-02T19:19:35.222Z,100952.00
2022-09-02T19:22:11.162Z,100953.00
2022-09-02T19:24:50.716Z,100953.00
2022-09-02T19:27:22.213Z,100967.00
2022-09-02T19:29:52.785Z,100964.00
2022-09-02T19:32:27.346Z,100958.00
2022-09-02T19:34:54.081Z,100956.00
2022-09-02T19:37:20.661Z,100959.00
2022-09-02T19:39:52.211Z,100968.00
2022-09-02T19:42:20.826Z,100966.00
2022-09-02T19:44:50.958Z,100971.00
2022-09-02T19:50:05.980Z,100967.00
2022-09-02T19:52:36.392Z,100972.00
2022-09-02T19:55:03.502Z,100971.00
2022-09-02T19:57:30.245Z,100971.00
2022-09-02T19:59:57.066Z,100967.00
2022-09-02T20:02:23.847Z,100973.00
2022-09-02T20:04:50.508Z,100974.00
2022-09-02T20:07:17.191Z,100955.00
2022-09-02T20:09:43.759Z,100975.00
2022-09-02T20:12:14.288Z,100972.00
2022-09-02T20:14:40.913Z,100976.00
2022-09-02T20:17:17.601Z,100973.00
2022-09-02T20:19:45.105Z,100982.00
2022-09-02T20:22:13.951Z,100976.00
2022-09-02T20:24:41.431Z,100979.00
2022-09-02T20:27:33.123Z,100977.00
2022-09-02T20:30:11.468Z,100976.00
2022-09-02T20:32:57.070Z,100974.00
2022-09-02T20:35:44.375Z,100975.00
2022-09-02T20:38:37.634Z,100979.00
2022-09-02T20:41:22.951Z,100985.00
2022-09-02T20:44:14.616Z,100979.00
2022-09-02T20:46:59.462Z,100980.00
2022-09-02T20:50:01.802Z,100991.00
2022-09-02T20:53:04.386Z,100987.00
2022-09-02T20:55:37.356Z,100994.00
2022-09-02T20:58:36.637Z,100989.00
2022-09-02T21:01:09.202Z,101002.00
2022-09-02T21:03:50.425Z,100995.00
2022-09-02T21:06:19.035Z,100985.00
2022-09-02T21:09:08.158Z,100992.00
2022-09-02T21:11:44.561Z,100994.00
2022-09-02T21:14:18.558Z,100998.00
2022-09-02T21:16:50.125Z,100998.00
2022-09-02T21:19:36.384Z,101000.00
2022-09-02T21:22:34.114Z,100999.00
2022-09-02T21:25:10.106Z,100999.00
2022-09-02T21:27:45.684Z,100998.00
2022-09-02T21:30:20.988Z,100990.00
2022-09-02T21:32:58.690Z,101001.00
2022-09-02T21:35:48.846Z,101006.00
2022-09-02T21:38:37.419Z,101003.00
2022-09-02T21:41:10.099Z,100997.00
2022-09-02T21:43:56.063Z,100995.00
2022-09-02T21:46:48.911Z,101005.00
2022-09-02T21:49:18.569Z,101003.00
2022-09-02T21:51:45.112Z,101002.00
2022-09-02T21:54:40.920Z,100999.00
2022-09-02T21:57:35.532Z,100993.00
2022-09-02T22:00:07.610Z,100988.00
2022-09-02T22:02:48.634Z,100991.00
2022-09-02T22:05:32.328Z,100991.00
2022-09-02T22:07:59.866Z,100991.00
2022-09-02T22:10:37.029Z,100983.00
2022-09-02T22:13:04.016Z,100994.00
2022-09-02T22:16:05.003Z,100992.00
2022-09-02T22:19:00.590Z,100998.00
2022-09-02T22:21:48.843Z,101000.00
2022-09-02T22:24:17.634Z,101003.00
2022-09-02T22:26:49.593Z,101001.00
2022-09-02T22:29:38.268Z,100997.00
2022-09-02T22:32:09.181Z,100993.00
2022-09-02T22:34:42.504Z,100995.00
2022-09-02T22:37:17.123Z,100995.00
2022-09-02T22:39:49.421Z,101000.00
2022-09-02T22:42:44.306Z,100998.00
2022-09-02T22:45:33.624Z,100995.00
2022-09-02T22:48:24.658Z,101002.00
2022-09-02T22:51:17.216Z,100999.00
2022-09-02T22:53:47.436Z,100997.00
2022-09-02T22:56:15.652Z,101002.00
2022-09-02T22:59:07.404Z,101002.00
2022-09-02T23:02:01.990Z,100998.00
2022-09-02T23:04:44.474Z,101003.00
2022-09-02T23:07:13.607Z,100994.00
2022-09-02T23:09:40.316Z,100991.00
2022-09-02T23:12:44.645Z,100985.00
2022-09-02T23:15:33.077Z,100986.00
2022-09-02T23:18:03.044Z,100988.00
2022-09-02T23:20:50.391Z,100985.00
2022-09-02T23:23:47.587Z,100979.00
2022-09-02T23:26:45.383Z,100978.00
2022-09-02T23:29:15.929Z,100974.00
2022-09-02T23:31:57.682Z,100978.00
2022-09-02T23:34:30.512Z,100972.00
2022-09-02T23:37:04.564Z,100976.00
2022-09-02T23:39:53.442Z,100972.00
2022-09-02T23:42:20.666Z,100970.00
2022-09-02T23:44:48.049Z,100963.00
2022-09-02T23:47:59.864Z,100965.00
2022-09-02T23:50:47.071Z,100952.00
2022-09-02T23:53:25.716Z,100966.00
2022-09-02T23:56:07.485Z,100959.00
2022-09-02T23:58:52.460Z,100957.00
